プーケット の空港の天気 - METARとTAF

プーケット国際空港 ( VTSP / HKT ) - タイ プーケット県
飛行場実況気象(Metar)
観測時間12/18 15:30 ICT (12/18 08:30 UTC)
風向・風速東 4m/s 瞬間風速11m/s
視程10km以上
天気現象
少しの雲 雲底高度 610m
気温28℃
湿度66%
気圧1010hPa
METARVTSP 180830Z 08008G22KT 9999 FEW020 28/21 Q1010 NOSIG
過去の天気等 Google飛行場航空写真 Wunderground天気予報

過去48時間のMETAR

飛行場予報(TAF)
発表時間: 12/18 12:00 ICT (12/18 05:00 UTC)
予報対象時間: 18日13時 ICT ~ 19日19時 ICT
風向・風速東 6m/s
視程10km以上
少しの雲 雲底高度 550m
全天の8割程度の雲 雲底高度 3,050m
18日15時 ICT ~ 18日19時 ICT に一時的に
風向・風速不定 8m/s 瞬間風速 13m/s
視程3,000m
天気現象雷雨
少しの積乱雲 雲底高度 550m
全天の4割程度の雲 雲底高度 610m
全天の8割程度の雲 雲底高度 3,050m
18日22時 ICT ~ 18日24時 ICT に徐々に
風向・風速東 4m/s
視程8,000m
19日9時 ICT ~ 19日11時 ICT に徐々に
風向・風速東 6m/s
視程10km以上
TAF VTSP 180500Z 1806/1912 08012KT 9999 FEW018 BKN100
TEMPO 1808/1812 VRB15G25KT 3000 TSRA FEW018CB SCT020 BKN100
BECMG 1815/1817 08008KT 8000
BECMG 1902/1904 08012KT 9999